Time;durP1;ratioP1;P1;durP2;ratioP2;P2;SDS_P1;SDS_P2;PMS_P1;PMS_P2;Temp;Humidity;BMP_temperature;BMP_pressure;BME280_temperature;BME280_humidity;BME280_pressure;Samples;Min_cycle;Max_cycle;Signal;HPM_P1;HPM_P2
2021/12/06 00:01:31;;;;;;;34.93;20.93;;;4.90;99.90;;;;;;5092052;28;20233;-83
2021/12/06 00:04:02;;;;;;;36.43;21.43;;;4.90;99.90;;;;;;5089056;28;20245;-82
2021/12/06 00:06:30;;;;;;;43.77;22.73;;;4.90;99.90;;;;;;5087969;28;20254;-82
2021/12/06 00:08:57;;;;;;;37.97;20.50;;;4.90;99.90;;;;;;5083389;28;20594;-82
2021/12/06 00:11:24;;;;;;;47.73;22.23;;;4.90;99.90;;;;;;5088662;28;20211;-82
2021/12/06 00:13:52;;;;;;;36.07;21.23;;;4.90;99.90;;;;;;5082723;28;20719;-81
2021/12/06 00:16:22;;;;;;;38.63;22.53;;;4.90;99.90;;;;;;5088371;28;20316;-81
2021/12/06 00:18:51;;;;;;;35.53;21.83;;;4.90;99.90;;;;;;5095689;28;20228;-81
2021/12/06 00:21:19;;;;;;;49.80;21.93;;;4.90;99.90;;;;;;5081400;28;20240;-81
2021/12/06 00:23:46;;;;;;;46.73;22.83;;;4.90;99.90;;;;;;5087888;28;20214;-81
2021/12/06 00:26:13;;;;;;;84.93;26.00;;;4.90;99.90;;;;;;5085051;28;20772;-79
2021/12/06 00:28:42;;;;;;;35.30;22.07;;;4.90;99.90;;;;;;5088072;28;20221;-80
2021/12/06 00:31:10;;;;;;;38.00;21.40;;;4.90;99.90;;;;;;5091403;28;20330;-80
2021/12/06 00:33:38;;;;;;;35.90;21.03;;;4.90;99.90;;;;;;5087275;28;20221;-81
2021/12/06 00:36:07;;;;;;;34.80;20.50;;;4.90;99.90;;;;;;5087703;28;20788;-81
2021/12/06 00:38:37;;;;;;;35.73;21.67;;;4.90;99.90;;;;;;5085338;28;20314;-82
2021/12/06 00:41:05;;;;;;;34.33;21.27;;;5.00;99.90;;;;;;5087924;28;20251;-82
2021/12/06 00:43:32;;;;;;;32.67;19.83;;;5.00;99.90;;;;;;5080556;28;20308;-82
2021/12/06 00:45:59;;;;;;;34.77;20.97;;;5.00;99.90;;;;;;5087396;28;20799;-82
2021/12/06 00:48:27;;;;;;;36.80;21.83;;;5.00;99.90;;;;;;5083759;28;20226;-81
2021/12/06 00:50:54;;;;;;;33.40;20.77;;;5.00;99.90;;;;;;5086163;28;20254;-82
2021/12/06 00:53:21;;;;;;;36.03;21.87;;;5.00;99.90;;;;;;5088070;28;20224;-82
2021/12/06 00:55:48;;;;;;;38.10;21.83;;;5.00;99.90;;;;;;5085952;28;20224;-81
2021/12/06 00:58:15;;;;;;;34.80;21.17;;;5.00;99.90;;;;;;5077694;28;20772;-82
2021/12/06 01:00:45;;;;;;;34.47;21.80;;;5.00;99.90;;;;;;5086737;28;20228;-82
2021/12/06 01:03:15;;;;;;;36.00;20.87;;;5.00;99.90;;;;;;5084580;28;20596;-83
2021/12/06 01:05:44;;;;;;;30.63;19.40;;;5.00;99.90;;;;;;5090577;28;20304;-82
2021/12/06 01:08:11;;;;;;;31.87;19.77;;;5.00;99.90;;;;;;5086330;28;20226;-82
2021/12/06 01:10:40;;;;;;;37.50;21.37;;;5.00;99.90;;;;;;5084515;28;20250;-82
2021/12/06 01:13:07;;;;;;;36.90;21.03;;;5.00;99.90;;;;;;5083112;28;20228;-81
2021/12/06 01:15:36;;;;;;;39.80;20.40;;;5.00;99.90;;;;;;5087334;28;20215;-82
2021/12/06 01:18:05;;;;;;;34.97;20.93;;;5.00;99.90;;;;;;5086953;28;20595;-82
2021/12/06 01:20:41;;;;;;;35.77;21.37;;;5.00;99.90;;;;;;5085494;28;20269;-82
2021/12/06 01:23:13;;;;;;;34.67;19.63;;;4.90;99.90;;;;;;5087938;28;20792;-83
2021/12/06 01:25:49;;;;;;;38.57;20.40;;;4.90;99.90;;;;;;5086863;28;20223;-83
2021/12/06 01:28:59;;;;;;;37.90;21.13;;;4.90;99.90;;;;;;5079978;28;20630;-81
2021/12/06 01:31:37;;;;;;;159.03;26.93;;;4.90;99.90;;;;;;5085328;28;20629;-81
2021/12/06 01:39:05;;;;;;;35.43;20.47;;;4.90;99.90;;;;;;5081815;28;20216;-81
2021/12/06 01:39:41;;;;;;;62.63;22.30;;;4.80;99.90;;;;;;5089068;28;20219;-82
2021/12/06 01:42:09;;;;;;;49.67;21.40;;;4.70;99.90;;;;;;5087277;28;20921;-82
2021/12/06 01:44:38;;;;;;;75.43;23.83;;;4.70;99.90;;;;;;5085309;28;20567;-82
2021/12/06 01:47:13;;;;;;;71.37;22.73;;;4.70;99.90;;;;;;5086602;28;20295;-81
2021/12/06 01:49:43;;;;;;;37.33;22.07;;;4.60;99.90;;;;;;5085134;28;20275;-82
2021/12/06 01:52:13;;;;;;;38.50;21.17;;;4.60;99.90;;;;;;5086453;28;20262;-82
2021/12/06 01:54:41;;;;;;;36.03;21.00;;;4.60;99.90;;;;;;5087570;28;20294;-80
2021/12/06 01:57:09;;;;;;;36.87;22.57;;;4.50;99.90;;;;;;5089426;28;20344;-80
2021/12/06 01:59:36;;;;;;;34.17;21.60;;;4.50;99.90;;;;;;5086717;28;20703;-82
2021/12/06 02:02:04;;;;;;;38.13;21.53;;;4.50;99.90;;;;;;5087210;28;20237;-81
2021/12/06 02:04:32;;;;;;;35.33;21.43;;;4.50;99.90;;;;;;5090157;28;20215;-81
2021/12/06 02:07:00;;;;;;;52.30;21.97;;;4.50;99.90;;;;;;5085288;28;20221;-81
2021/12/06 02:09:28;;;;;;;37.53;21.90;;;4.50;99.90;;;;;;5088069;28;20223;-80
2021/12/06 02:12:04;;;;;;;39.63;20.63;;;4.50;99.90;;;;;;5095590;28;20232;-80
2021/12/06 02:14:40;;;;;;;40.43;22.27;;;4.50;99.90;;;;;;5086511;28;20228;-80
2021/12/06 02:17:14;;;;;;;35.23;22.10;;;4.60;99.90;;;;;;5088542;28;20237;-81
2021/12/06 02:19:47;;;;;;;37.43;22.03;;;4.50;99.90;;;;;;5084970;28;20733;-82
2021/12/06 02:22:18;;;;;;;40.17;21.17;;;4.50;99.90;;;;;;5085366;28;20273;-82
2021/12/06 02:24:45;;;;;;;367.27;40.63;;;4.50;99.90;;;;;;5080355;28;20305;-82
2021/12/06 02:27:14;;;;;;;34.53;21.00;;;4.50;99.90;;;;;;5086111;28;20219;-82
2021/12/06 02:29:43;;;;;;;32.43;20.50;;;4.50;99.90;;;;;;5080095;28;20252;-82
2021/12/06 02:32:13;;;;;;;35.63;21.33;;;4.50;99.90;;;;;;5079179;28;20254;-83
2021/12/06 02:34:42;;;;;;;42.40;21.53;;;4.50;99.90;;;;;;5084177;28;20221;-82
2021/12/06 02:37:09;;;;;;;36.63;22.13;;;4.50;99.90;;;;;;5086561;28;20220;-82
2021/12/06 02:39:39;;;;;;;35.10;21.60;;;4.40;99.90;;;;;;5084565;28;20310;-81
2021/12/06 02:42:08;;;;;;;37.00;22.27;;;4.50;99.90;;;;;;5085809;28;20653;-82
2021/12/06 02:44:35;;;;;;;244.47;35.23;;;4.30;99.90;;;;;;5089206;28;20290;-83
2021/12/06 02:47:03;;;;;;;44.60;22.00;;;4.30;99.90;;;;;;5086317;28;20670;-83
2021/12/06 02:49:29;;;;;;;97.90;24.93;;;4.20;99.90;;;;;;5086272;28;20226;-81
2021/12/06 02:51:57;;;;;;;37.17;21.83;;;4.20;99.90;;;;;;5085631;28;20213;-82
2021/12/06 02:54:25;;;;;;;96.27;25.93;;;4.10;99.90;;;;;;5092351;28;20212;-82
2021/12/06 02:57:06;;;;;;;44.00;21.80;;;4.10;99.90;;;;;;5092039;28;20241;-81
2021/12/06 02:59:33;;;;;;;39.40;20.63;;;4.00;99.90;;;;;;5087591;28;20255;-82
2021/12/06 03:02:04;;;;;;;45.63;23.40;;;4.00;99.90;;;;;;5086429;28;20229;-80
2021/12/06 03:04:31;;;;;;;35.70;21.67;;;3.90;99.90;;;;;;5085337;28;20258;-80
2021/12/06 03:07:02;;;;;;;34.97;21.87;;;3.90;99.90;;;;;;5082669;28;20222;-80
2021/12/06 03:09:33;;;;;;;39.67;21.57;;;3.80;99.90;;;;;;5086174;28;20225;-79
2021/12/06 03:12:05;;;;;;;40.07;22.77;;;3.80;99.90;;;;;;5081582;28;20336;-80
2021/12/06 03:14:35;;;;;;;38.97;21.87;;;3.80;99.90;;;;;;5082139;28;20220;-79
2021/12/06 03:17:09;;;;;;;48.60;22.87;;;3.70;99.90;;;;;;5089310;28;20332;-80
2021/12/06 03:19:37;;;;;;;63.07;23.77;;;3.70;99.90;;;;;;5090952;28;20315;-80
2021/12/06 03:22:05;;;;;;;34.77;21.27;;;3.60;99.90;;;;;;5092234;28;20215;-80
2021/12/06 03:24:32;;;;;;;38.83;22.23;;;3.60;99.90;;;;;;5088098;28;20237;-81
2021/12/06 03:27:01;;;;;;;40.47;23.67;;;3.60;99.90;;;;;;5090218;28;20638;-81
2021/12/06 03:29:29;;;;;;;61.87;25.27;;;3.50;99.90;;;;;;5092182;28;20228;-81
2021/12/06 03:31:57;;;;;;;98.40;56.63;;;3.50;99.90;;;;;;5093695;28;20233;-81
2021/12/06 03:34:26;;;;;;;90.20;51.07;;;3.50;99.90;;;;;;5087985;28;20241;-82
2021/12/06 03:36:58;;;;;;;333.07;112.43;;;3.40;99.90;;;;;;5086896;28;20219;-81
2021/12/06 03:39:28;;;;;;;95.50;52.87;;;3.40;99.90;;;;;;5089411;28;20267;-81
2021/12/06 03:41:57;;;;;;;61.20;35.77;;;3.40;99.90;;;;;;5091121;28;20413;-81
2021/12/06 03:44:27;;;;;;;42.10;23.77;;;3.30;99.90;;;;;;5090278;28;20668;-81
2021/12/06 03:46:59;;;;;;;122.70;30.47;;;3.30;99.90;;;;;;5095395;28;20212;-81
2021/12/06 03:49:27;;;;;;;41.93;24.20;;;3.40;99.90;;;;;;5093110;28;20222;-81
2021/12/06 03:51:54;;;;;;;152.57;79.60;;;3.40;99.90;;;;;;5088912;28;20211;-81
2021/12/06 03:54:26;;;;;;;46.67;27.03;;;3.40;99.90;;;;;;5090285;28;20218;-81
2021/12/06 03:56:53;;;;;;;97.73;53.60;;;3.40;99.90;;;;;;5089004;28;20224;-81
2021/12/06 03:59:20;;;;;;;48.90;27.97;;;3.40;99.90;;;;;;5088764;28;20214;-81
2021/12/06 04:01:49;;;;;;;72.97;33.50;;;3.50;99.90;;;;;;5086578;28;20225;-81
2021/12/06 04:04:20;;;;;;;50.07;30.17;;;3.50;99.90;;;;;;5084583;28;20239;-83
2021/12/06 04:06:48;;;;;;;45.63;26.00;;;3.50;99.90;;;;;;5085471;28;20252;-82
2021/12/06 04:09:15;;;;;;;40.93;23.83;;;3.60;99.90;;;;;;5088173;28;20225;-82
2021/12/06 04:11:43;;;;;;;39.40;22.47;;;3.60;99.90;;;;;;5088969;28;20374;-82
2021/12/06 04:14:10;;;;;;;54.97;22.80;;;3.60;99.90;;;;;;5084627;28;20217;-81
2021/12/06 04:16:38;;;;;;;37.30;22.33;;;3.60;99.90;;;;;;5086621;28;20271;-80
2021/12/06 04:19:08;;;;;;;39.97;21.90;;;3.60;99.90;;;;;;5085104;28;20233;-80
2021/12/06 04:21:36;;;;;;;36.50;21.00;;;3.70;99.90;;;;;;5091719;28;20702;-81
2021/12/06 04:24:04;;;;;;;40.17;20.60;;;3.70;99.90;;;;;;5088249;28;20225;-81
2021/12/06 04:26:31;;;;;;;43.40;20.10;;;3.70;99.90;;;;;;5082607;28;20225;-79
2021/12/06 04:29:01;;;;;;;108.00;24.57;;;3.70;99.90;;;;;;5087101;28;20260;-80
2021/12/06 04:31:42;;;;;;;132.00;25.17;;;3.70;99.90;;;;;;5087735;28;20229;-81
2021/12/06 04:34:12;;;;;;;143.87;26.50;;;3.70;99.90;;;;;;5089893;28;20283;-80
2021/12/06 04:36:42;;;;;;;242.00;33.00;;;3.70;99.90;;;;;;5085922;28;20216;-81
2021/12/06 04:39:13;;;;;;;31.73;19.03;;;3.70;99.90;;;;;;5088379;28;20220;-80
2021/12/06 04:41:41;;;;;;;33.23;20.40;;;3.70;99.90;;;;;;5087571;28;20707;-80
2021/12/06 04:44:08;;;;;;;33.57;18.27;;;3.70;99.90;;;;;;5089661;28;20227;-80
2021/12/06 04:46:35;;;;;;;183.23;26.23;;;3.70;99.90;;;;;;5088530;28;20211;-80
2021/12/06 04:49:03;;;;;;;30.30;17.13;;;3.80;99.90;;;;;;5087287;28;20223;-80
2021/12/06 04:51:32;;;;;;;27.37;16.83;;;3.80;99.90;;;;;;5094106;28;20213;-80
2021/12/06 04:53:59;;;;;;;81.80;19.67;;;3.80;99.90;;;;;;5104453;28;20732;-80
2021/12/06 04:56:28;;;;;;;29.43;16.03;;;3.80;99.90;;;;;;5089530;28;20224;-80
2021/12/06 04:58:59;;;;;;;33.13;16.73;;;3.90;99.90;;;;;;5101618;28;20206;-81
2021/12/06 05:01:29;;;;;;;30.50;15.83;;;4.00;99.90;;;;;;5086998;28;20233;-81
2021/12/06 05:04:01;;;;;;;26.00;15.27;;;4.00;99.90;;;;;;5084623;28;20224;-79
2021/12/06 05:06:33;;;;;;;32.57;15.23;;;4.00;99.90;;;;;;5093180;28;20225;-81
2021/12/06 05:09:12;;;;;;;30.17;15.10;;;4.10;99.90;;;;;;5085318;28;20981;-81
2021/12/06 05:11:39;;;;;;;24.77;15.13;;;4.10;99.90;;;;;;5087116;28;20234;-80
2021/12/06 05:14:07;;;;;;;55.37;17.27;;;4.20;99.90;;;;;;5084540;28;20717;-81
2021/12/06 05:16:35;;;;;;;82.47;18.23;;;4.20;99.90;;;;;;5088969;28;20539;-82
2021/12/06 05:19:02;;;;;;;30.50;15.13;;;4.30;99.90;;;;;;5086549;28;20217;-83
2021/12/06 05:21:31;;;;;;;87.77;18.17;;;4.30;99.90;;;;;;5084962;28;20302;-86
2021/12/06 05:23:58;;;;;;;25.30;13.73;;;4.30;99.90;;;;;;5086161;28;20208;-83
2021/12/06 05:26:25;;;;;;;29.77;14.77;;;4.30;99.90;;;;;;5079850;28;20263;-82
2021/12/06 05:28:57;;;;;;;124.10;20.10;;;4.40;99.90;;;;;;5083812;28;21723;-83
2021/12/06 05:31:24;;;;;;;22.50;13.03;;;4.40;99.90;;;;;;5085829;28;20309;-83
2021/12/06 05:33:55;;;;;;;25.87;13.63;;;4.40;99.90;;;;;;5098873;28;20216;-83
2021/12/06 05:36:22;;;;;;;20.53;12.87;;;4.40;99.90;;;;;;5083015;28;20236;-82
2021/12/06 05:38:51;;;;;;;142.73;19.97;;;4.40;99.90;;;;;;5090773;28;20227;-83
2021/12/06 05:41:18;;;;;;;22.73;13.80;;;4.40;99.90;;;;;;5085627;28;21049;-83
2021/12/06 05:43:45;;;;;;;62.70;14.80;;;4.40;99.90;;;;;;5086242;28;20236;-82
2021/12/06 05:46:12;;;;;;;24.07;13.93;;;4.40;99.90;;;;;;5088939;28;20245;-84
2021/12/06 05:48:39;;;;;;;25.40;13.90;;;4.50;99.90;;;;;;5092735;28;20247;-82
2021/12/06 05:51:06;;;;;;;76.30;16.67;;;4.40;99.90;;;;;;5086248;28;20694;-81
2021/12/06 05:53:33;;;;;;;25.37;13.37;;;4.40;99.90;;;;;;5086784;28;20308;-80
2021/12/06 05:56:01;;;;;;;20.23;12.03;;;4.40;99.90;;;;;;5084305;28;20232;-81
2021/12/06 05:58:29;;;;;;;20.47;12.43;;;4.40;99.90;;;;;;5086194;28;20224;-80
2021/12/06 06:00:57;;;;;;;25.30;12.80;;;4.50;99.90;;;;;;5083835;28;20236;-81
2021/12/06 06:03:25;;;;;;;98.23;16.70;;;4.50;99.90;;;;;;5083107;28;20208;-81
2021/12/06 06:05:52;;;;;;;20.20;13.10;;;4.50;99.90;;;;;;5078971;28;20242;-81
2021/12/06 06:08:19;;;;;;;48.37;14.33;;;4.50;99.90;;;;;;5081050;28;20317;-81
2021/12/06 06:10:47;;;;;;;19.57;13.07;;;4.60;99.90;;;;;;5079747;28;20317;-81
2021/12/06 06:13:16;;;;;;;22.63;12.77;;;4.60;99.90;;;;;;5091960;28;20226;-81
2021/12/06 06:15:43;;;;;;;19.97;13.20;;;4.60;99.90;;;;;;5094963;28;20672;-81
2021/12/06 06:18:09;;;;;;;24.07;12.07;;;4.70;99.90;;;;;;5091522;28;20221;-81
2021/12/06 06:20:39;;;;;;;22.07;13.20;;;4.70;99.90;;;;;;5088071;28;20864;-81
2021/12/06 06:23:06;;;;;;;28.10;13.13;;;4.70;99.90;;;;;;5082013;28;20225;-81
2021/12/06 06:25:33;;;;;;;20.40;12.80;;;4.70;99.90;;;;;;5085021;28;20317;-81
2021/12/06 06:28:00;;;;;;;26.90;12.53;;;4.70;99.90;;;;;;5085195;28;20345;-81
2021/12/06 06:30:29;;;;;;;18.70;12.53;;;4.70;99.90;;;;;;5093272;28;21651;-81
2021/12/06 06:32:56;;;;;;;37.43;14.00;;;4.70;99.90;;;;;;5086726;28;20218;-81
2021/12/06 06:35:23;;;;;;;19.83;12.13;;;4.80;99.90;;;;;;5091037;28;20222;-80
2021/12/06 06:37:50;;;;;;;20.03;11.80;;;4.80;99.90;;;;;;5084882;28;20583;-80
2021/12/06 06:40:18;;;;;;;24.40;12.10;;;4.80;99.90;;;;;;5084635;28;21906;-80
2021/12/06 06:42:45;;;;;;;16.33;11.40;;;4.80;99.90;;;;;;5084441;28;20223;-81
2021/12/06 06:45:16;;;;;;;16.90;11.13;;;4.80;99.90;;;;;;5073189;28;20308;-80
2021/12/06 06:47:44;;;;;;;68.77;15.00;;;4.80;99.90;;;;;;5092970;28;20227;-81
2021/12/06 06:50:11;;;;;;;18.20;12.17;;;4.80;99.90;;;;;;5090512;28;20253;-81
2021/12/06 06:52:39;;;;;;;23.53;12.90;;;4.70;99.90;;;;;;5086620;28;20293;-81
2021/12/06 06:55:09;;;;;;;21.77;12.83;;;4.70;99.90;;;;;;5091736;28;20233;-80
2021/12/06 06:57:36;;;;;;;33.63;12.53;;;4.70;99.90;;;;;;5099708;28;20233;-81
2021/12/06 07:00:05;;;;;;;18.87;11.30;;;4.70;99.90;;;;;;5089243;28;20229;-81
2021/12/06 07:02:32;;;;;;;72.83;14.63;;;4.60;99.90;;;;;;5088242;28;20225;-81
2021/12/06 07:05:00;;;;;;;19.27;11.63;;;4.60;99.90;;;;;;5094360;27;20217;-80
2021/12/06 07:07:26;;;;;;;17.17;11.37;;;4.60;99.90;;;;;;5087018;28;20226;-81
2021/12/06 07:09:53;;;;;;;16.07;11.03;;;4.60;99.90;;;;;;5084488;28;20303;-81
2021/12/06 07:12:20;;;;;;;16.60;11.47;;;4.50;99.90;;;;;;5091255;28;20222;-81
2021/12/06 07:14:48;;;;;;;23.27;11.67;;;4.50;99.90;;;;;;5097452;28;20255;-80
2021/12/06 07:17:16;;;;;;;20.00;11.47;;;4.50;99.90;;;;;;5088750;28;20221;-81
2021/12/06 07:19:42;;;;;;;16.50;11.67;;;4.50;99.90;;;;;;5088489;28;20238;-81
2021/12/06 07:22:11;;;;;;;42.80;12.87;;;4.40;99.90;;;;;;5095957;28;20223;-81
2021/12/06 07:24:38;;;;;;;15.20;10.30;;;4.40;99.90;;;;;;5093178;28;20233;-80
2021/12/06 07:27:06;;;;;;;19.00;11.60;;;4.40;99.90;;;;;;5096487;28;20217;-81
2021/12/06 07:29:35;;;;;;;32.50;12.10;;;4.40;99.90;;;;;;5086188;28;20221;-80
2021/12/06 07:32:03;;;;;;;16.03;10.33;;;4.40;99.90;;;;;;5088672;28;20669;-81
2021/12/06 07:34:30;;;;;;;16.37;10.90;;;4.40;99.90;;;;;;5099477;28;20223;-81
2021/12/06 07:36:57;;;;;;;15.60;10.70;;;4.40;99.90;;;;;;5100160;28;20623;-81
2021/12/06 07:39:25;;;;;;;19.03;11.20;;;4.40;99.90;;;;;;5090951;28;20234;-80
2021/12/06 07:41:52;;;;;;;56.57;13.10;;;4.40;99.90;;;;;;5090866;28;20220;-81
2021/12/06 07:44:19;;;;;;;27.30;12.13;;;4.50;99.90;;;;;;5095252;28;20317;-80
2021/12/06 07:46:46;;;;;;;15.53;11.23;;;4.40;99.90;;;;;;5098679;28;20225;-81
2021/12/06 07:49:13;;;;;;;91.17;15.10;;;4.50;99.90;;;;;;5094319;28;20312;-81
2021/12/06 07:51:40;;;;;;;17.47;10.97;;;4.40;99.90;;;;;;5089027;28;20226;-80
2021/12/06 07:54:06;;;;;;;17.07;11.57;;;4.50;99.90;;;;;;5087006;28;20229;-81
2021/12/06 07:56:35;;;;;;;19.57;11.37;;;4.50;99.90;;;;;;5085050;28;20220;-81
2021/12/06 07:59:01;;;;;;;31.27;11.07;;;4.50;99.90;;;;;;5098118;28;20267;-79
2021/12/06 08:01:28;;;;;;;16.43;10.83;;;4.50;99.90;;;;;;5099647;28;20553;-80
2021/12/06 08:03:55;;;;;;;30.90;11.40;;;4.50;99.90;;;;;;5091638;28;20217;-80
2021/12/06 08:06:22;;;;;;;26.27;10.57;;;4.50;99.90;;;;;;5084756;28;20263;-81
2021/12/06 08:08:49;;;;;;;19.70;10.53;;;4.50;99.90;;;;;;5086571;28;20222;-80
2021/12/06 08:11:19;;;;;;;22.77;10.93;;;4.50;99.90;;;;;;5090382;28;20254;-80
2021/12/06 08:13:53;;;;;;;89.47;14.90;;;4.50;99.90;;;;;;5087931;28;20237;-80
2021/12/06 08:16:23;;;;;;;18.37;10.77;;;4.50;99.90;;;;;;5083570;28;20660;-80
2021/12/06 08:18:50;;;;;;;23.00;10.73;;;4.60;99.90;;;;;;5090449;28;20229;-80
2021/12/06 08:21:19;;;;;;;21.60;11.07;;;4.50;99.90;;;;;;5085549;28;20216;-80
2021/12/06 08:23:48;;;;;;;18.43;10.60;;;4.60;99.90;;;;;;5085469;28;20632;-80
2021/12/06 08:26:16;;;;;;;33.87;11.87;;;4.60;99.90;;;;;;5085333;28;20228;-80
2021/12/06 08:28:43;;;;;;;25.70;11.03;;;4.60;99.90;;;;;;5096449;28;20711;-79
2021/12/06 08:31:12;;;;;;;17.90;10.70;;;4.70;99.90;;;;;;5096002;28;20726;-80
2021/12/06 08:33:40;;;;;;;24.90;11.23;;;4.70;99.90;;;;;;5094200;28;20332;-80
2021/12/06 08:36:08;;;;;;;15.30;10.27;;;4.80;99.90;;;;;;5087301;28;20640;-80
2021/12/06 08:38:36;;;;;;;16.47;10.77;;;4.80;99.90;;;;;;5085372;28;20253;-80
2021/12/06 08:41:06;;;;;;;18.60;10.50;;;4.90;99.90;;;;;;5093477;28;20692;-80
2021/12/06 08:43:33;;;;;;;25.80;10.83;;;4.90;99.90;;;;;;5077837;28;20235;-80
2021/12/06 08:46:02;;;;;;;46.93;12.20;;;5.00;99.90;;;;;;5090978;28;20232;-80
2021/12/06 08:48:33;;;;;;;16.60;10.27;;;4.90;99.90;;;;;;5084392;28;20232;-80
2021/12/06 08:51:04;;;;;;;16.00;10.60;;;5.00;99.90;;;;;;5092436;28;20293;-80
2021/12/06 08:53:31;;;;;;;16.67;9.70;;;5.00;99.90;;;;;;5081226;28;20220;-80
2021/12/06 08:55:58;;;;;;;14.77;10.17;;;5.10;99.90;;;;;;5082487;28;20227;-80
2021/12/06 08:58:25;;;;;;;19.33;10.40;;;5.10;99.90;;;;;;5087985;28;20597;-80
2021/12/06 09:00:52;;;;;;;15.13;10.33;;;5.10;99.90;;;;;;5082986;28;21552;-80
2021/12/06 09:03:20;;;;;;;11.90;8.90;;;5.10;99.90;;;;;;5087906;28;20220;-80
2021/12/06 09:05:51;;;;;;;13.37;8.90;;;5.20;99.90;;;;;;5093372;28;20227;-80
2021/12/06 09:08:18;;;;;;;13.43;9.27;;;5.20;99.90;;;;;;5087438;28;20300;-80
2021/12/06 09:10:49;;;;;;;12.03;9.20;;;5.20;99.90;;;;;;5095046;28;20290;-81
2021/12/06 09:13:17;;;;;;;13.20;8.73;;;5.40;99.90;;;;;;5080159;28;20275;-80
2021/12/06 09:15:43;;;;;;;16.80;9.33;;;5.40;99.90;;;;;;5087017;28;20231;-80
2021/12/06 09:18:10;;;;;;;14.97;9.37;;;5.40;99.90;;;;;;5086921;28;20321;-80
2021/12/06 09:20:41;;;;;;;12.70;8.73;;;5.50;99.90;;;;;;5089461;28;20235;-80
2021/12/06 09:23:10;;;;;;;12.00;7.90;;;5.60;99.90;;;;;;5084689;28;20226;-80
2021/12/06 09:25:37;;;;;;;12.33;8.57;;;5.80;99.90;;;;;;5085640;28;20318;-80
2021/12/06 09:28:05;;;;;;;10.60;8.53;;;6.10;99.90;;;;;;5084818;28;20246;-81
2021/12/06 09:30:34;;;;;;;11.23;8.57;;;6.40;99.90;;;;;;5098029;28;20240;-80
2021/12/06 09:33:03;;;;;;;12.10;8.27;;;6.60;99.90;;;;;;5084183;28;20249;-80
2021/12/06 09:35:32;;;;;;;9.87;7.57;;;6.90;99.90;;;;;;5085950;28;20222;-80
2021/12/06 09:38:00;;;;;;;9.43;7.33;;;7.00;99.90;;;;;;5094215;28;20833;-81
2021/12/06 09:40:30;;;;;;;9.70;7.43;;;7.20;99.90;;;;;;5085084;28;20219;-81
2021/12/06 09:42:59;;;;;;;10.80;7.87;;;7.20;99.90;;;;;;5090746;28;20577;-80
2021/12/06 09:45:29;;;;;;;11.40;8.13;;;7.20;99.90;;;;;;5090178;28;20261;-81
2021/12/06 09:47:59;;;;;;;11.13;8.40;;;7.10;99.90;;;;;;5089525;28;20214;-80
2021/12/06 09:50:29;;;;;;;13.00;8.40;;;7.10;99.90;;;;;;5100814;28;20228;-81
2021/12/06 09:52:57;;;;;;;11.90;8.60;;;7.10;99.90;;;;;;5087441;28;20978;-80
2021/12/06 09:55:26;;;;;;;12.33;8.77;;;7.10;99.90;;;;;;5091909;28;20258;-81
2021/12/06 09:57:54;;;;;;;11.37;8.33;;;7.10;99.90;;;;;;5085733;28;20223;-81
2021/12/06 10:00:25;;;;;;;12.30;8.73;;;7.00;99.90;;;;;;5088776;28;20222;-81
2021/12/06 10:02:53;;;;;;;13.70;9.33;;;7.00;99.90;;;;;;5091865;28;20223;-81
2021/12/06 10:05:25;;;;;;;13.70;9.50;;;6.90;99.90;;;;;;5081185;28;20241;-81
2021/12/06 10:07:53;;;;;;;13.67;10.00;;;6.80;99.90;;;;;;5088834;28;20318;-81
2021/12/06 10:10:19;;;;;;;17.43;10.27;;;6.70;99.90;;;;;;5090058;28;20262;-80
2021/12/06 10:12:51;;;;;;;16.00;10.63;;;6.70;99.90;;;;;;5087611;28;20291;-81
2021/12/06 10:15:19;;;;;;;14.90;10.13;;;6.60;99.90;;;;;;5088261;28;20227;-80
2021/12/06 10:17:46;;;;;;;14.43;10.10;;;6.50;99.90;;;;;;5088397;28;20218;-81
2021/12/06 10:20:15;;;;;;;14.37;10.37;;;6.40;99.90;;;;;;5082623;28;20710;-80
2021/12/06 10:22:41;;;;;;;16.13;9.93;;;6.30;99.90;;;;;;5088763;28;20283;-80
2021/12/06 10:25:09;;;;;;;17.57;10.60;;;6.30;99.90;;;;;;5083178;28;20234;-80
2021/12/06 10:27:35;;;;;;;15.00;10.20;;;6.20;99.90;;;;;;5084362;28;20248;-80
2021/12/06 10:30:08;;;;;;;15.63;10.53;;;6.10;99.90;;;;;;5094078;28;20215;-80
2021/12/06 10:32:40;;;;;;;18.40;11.80;;;5.90;99.90;;;;;;5097175;28;20228;-80
2021/12/06 10:35:10;;;;;;;16.20;11.40;;;5.90;99.90;;;;;;5093174;28;20236;-80
2021/12/06 10:37:45;;;;;;;17.53;11.40;;;5.80;99.90;;;;;;5090504;28;20227;-81
2021/12/06 10:40:18;;;;;;;16.57;11.70;;;5.70;99.90;;;;;;5082049;28;20230;-82
2021/12/06 10:42:47;;;;;;;18.40;12.30;;;5.70;99.90;;;;;;5087955;28;20335;-80
2021/12/06 10:45:16;;;;;;;18.20;11.97;;;5.70;99.90;;;;;;5098530;28;20224;-80
2021/12/06 10:48:05;;;;;;;18.97;13.07;;;5.60;99.90;;;;;;5087104;28;20215;-80
2021/12/06 10:50:33;;;;;;;18.87;12.67;;;5.60;99.90;;;;;;5093944;28;20222;-81
2021/12/06 10:53:03;;;;;;;20.17;13.33;;;5.50;99.90;;;;;;5096503;28;20304;-81
2021/12/06 10:55:32;;;;;;;22.00;13.70;;;5.60;99.90;;;;;;5086410;28;20274;-80
2021/12/06 10:58:01;;;;;;;20.93;13.27;;;5.50;99.90;;;;;;5091625;28;20689;-80
2021/12/06 11:00:36;;;;;;;21.07;13.37;;;5.40;99.90;;;;;;5087583;28;20312;-80
2021/12/06 11:03:05;;;;;;;22.00;14.40;;;5.40;99.90;;;;;;5078698;28;20736;-80
2021/12/06 11:05:35;;;;;;;19.17;13.13;;;5.40;99.90;;;;;;5085308;28;20233;-80
2021/12/06 11:08:13;;;;;;;20.60;13.00;;;5.30;99.90;;;;;;5085473;28;20229;-81
2021/12/06 11:10:42;;;;;;;20.57;13.40;;;5.30;99.90;;;;;;5079147;28;20216;-80
2021/12/06 11:13:14;;;;;;;20.33;13.37;;;5.20;99.90;;;;;;5081984;28;20229;-80
2021/12/06 11:15:53;;;;;;;19.60;12.47;;;5.20;99.90;;;;;;5084151;28;20223;-81
2021/12/06 11:18:35;;;;;;;20.60;13.43;;;5.10;99.90;;;;;;5090474;28;20228;-80
2021/12/06 11:21:04;;;;;;;21.03;13.57;;;5.10;99.90;;;;;;5085295;28;20224;-80
2021/12/06 11:23:32;;;;;;;21.83;13.80;;;5.10;99.90;;;;;;5088494;28;20217;-80
2021/12/06 11:26:04;;;;;;;20.67;14.03;;;5.00;99.90;;;;;;5092592;28;20582;-80
2021/12/06 11:28:33;;;;;;;18.80;13.27;;;5.00;99.90;;;;;;5086362;28;21039;-80
2021/12/06 11:31:02;;;;;;;22.17;13.90;;;4.90;99.90;;;;;;5090530;28;20243;-80
2021/12/06 11:33:32;;;;;;;20.97;12.83;;;4.90;99.90;;;;;;5076106;28;20847;-80
2021/12/06 11:36:01;;;;;;;18.83;12.87;;;4.90;99.90;;;;;;5090380;28;20629;-80
2021/12/06 11:38:29;;;;;;;21.17;13.77;;;4.90;99.90;;;;;;5089288;28;20225;-80
2021/12/06 11:40:58;;;;;;;20.53;13.47;;;4.80;99.90;;;;;;5089401;28;20575;-80
2021/12/06 11:43:26;;;;;;;24.77;14.63;;;4.80;99.90;;;;;;5101579;28;20330;-80
2021/12/06 11:45:56;;;;;;;21.03;13.57;;;4.80;99.90;;;;;;5094196;28;20222;-80
2021/12/06 11:48:25;;;;;;;21.23;13.60;;;4.80;99.90;;;;;;5092656;28;20215;-80
2021/12/06 11:50:56;;;;;;;23.33;15.53;;;4.80;99.90;;;;;;5091618;28;20247;-80
2021/12/06 11:53:26;;;;;;;22.73;15.20;;;4.80;99.90;;;;;;5091128;28;20221;-81
2021/12/06 11:55:56;;;;;;;24.37;15.27;;;4.80;99.90;;;;;;5097071;28;20948;-80
2021/12/06 11:58:25;;;;;;;24.83;15.97;;;4.80;99.90;;;;;;5098337;28;20225;-80
2021/12/06 12:01:10;;;;;;;24.53;16.07;;;4.80;99.90;;;;;;5106941;27;20510;-81
2021/12/06 12:03:38;;;;;;;24.13;15.10;;;4.80;99.90;;;;;;5095825;28;20230;-81
2021/12/06 12:06:21;;;;;;;25.27;15.97;;;4.80;99.90;;;;;;5089747;28;20218;-81
2021/12/06 12:08:48;;;;;;;26.47;16.10;;;4.80;99.90;;;;;;5090738;28;20234;-80
2021/12/06 12:11:15;;;;;;;25.57;15.77;;;4.70;99.90;;;;;;5100706;28;20239;-80
2021/12/06 12:13:43;;;;;;;24.47;15.87;;;4.80;99.90;;;;;;5092302;28;20529;-80
2021/12/06 12:16:13;;;;;;;26.27;16.00;;;4.70;99.90;;;;;;5089688;28;20226;-80
2021/12/06 12:18:42;;;;;;;25.33;15.93;;;4.80;99.90;;;;;;5089560;28;20233;-80
2021/12/06 12:21:10;;;;;;;23.50;14.63;;;4.80;99.90;;;;;;5089952;28;20222;-81
2021/12/06 12:23:38;;;;;;;25.10;15.47;;;4.80;99.90;;;;;;5089165;28;20217;-80
2021/12/06 12:26:11;;;;;;;26.83;16.70;;;4.90;99.90;;;;;;5091077;28;20223;-81
2021/12/06 12:28:51;;;;;;;25.23;16.50;;;4.90;99.90;;;;;;5101334;28;20224;-81
2021/12/06 12:31:20;;;;;;;25.53;15.17;;;4.90;99.90;;;;;;5085224;28;20221;-81
2021/12/06 12:33:48;;;;;;;23.60;15.80;;;4.90;99.90;;;;;;5094515;28;20220;-81
2021/12/06 12:36:18;;;;;;;24.37;16.27;;;4.90;99.90;;;;;;5092919;28;20308;-81
2021/12/06 12:38:48;;;;;;;26.80;16.97;;;4.90;99.90;;;;;;5094212;28;20228;-81
2021/12/06 12:41:17;;;;;;;26.33;17.17;;;4.90;99.90;;;;;;5097278;28;20223;-80
2021/12/06 12:43:46;;;;;;;28.83;17.77;;;4.90;99.90;;;;;;5093687;28;20278;-80
2021/12/06 12:46:16;;;;;;;27.47;17.67;;;4.90;99.90;;;;;;5098381;28;20323;-81
2021/12/06 12:48:50;;;;;;;25.73;16.97;;;4.80;99.90;;;;;;5081327;28;20235;-80
2021/12/06 12:51:22;;;;;;;29.53;17.83;;;4.90;99.90;;;;;;5092144;28;20733;-81